sensor_id;sensor_type;location;lat;lon;timestamp;temperature;humidity
39017;DHT22;24784;45.582;5.276;2022-12-20T00:01:13;11.00;99.90
39017;DHT22;24784;45.582;5.276;2022-12-20T00:03:40;11.20;99.90
39017;DHT22;24784;45.582;5.276;2022-12-20T00:06:06;11.20;99.90
39017;DHT22;24784;45.582;5.276;2022-12-20T00:08:32;11.20;99.90
39017;DHT22;24784;45.582;5.276;2022-12-20T00:11:01;11.30;99.90
39017;DHT22;24784;45.582;5.276;2022-12-20T00:13:27;11.20;99.90
39017;DHT22;24784;45.582;5.276;2022-12-20T00:16:20;11.10;99.90
39017;DHT22;24784;45.582;5.276;2022-12-20T00:18:50;11.30;99.90
39017;DHT22;24784;45.582;5.276;2022-12-20T00:21:16;11.30;99.90
39017;DHT22;24784;45.582;5.276;2022-12-20T00:23:42;11.20;99.90
39017;DHT22;24784;45.582;5.276;2022-12-20T00:26:10;11.20;99.90
39017;DHT22;24784;45.582;5.276;2022-12-20T00:28:38;11.20;99.90
39017;DHT22;24784;45.582;5.276;2022-12-20T00:31:04;11.00;99.90
39017;DHT22;24784;45.582;5.276;2022-12-20T00:33:33;10.90;99.90
39017;DHT22;24784;45.582;5.276;2022-12-20T00:35:59;11.00;99.90
39017;DHT22;24784;45.582;5.276;2022-12-20T00:38:25;10.90;99.90
39017;DHT22;24784;45.582;5.276;2022-12-20T00:41:08;10.90;99.90
39017;DHT22;24784;45.582;5.276;2022-12-20T00:43:35;10.90;99.90
39017;DHT22;24784;45.582;5.276;2022-12-20T00:46:01;11.00;99.90
39017;DHT22;24784;45.582;5.276;2022-12-20T00:48:28;11.10;99.90
39017;DHT22;24784;45.582;5.276;2022-12-20T00:51:05;11.10;99.90
39017;DHT22;24784;45.582;5.276;2022-12-20T00:53:32;11.20;99.90
39017;DHT22;24784;45.582;5.276;2022-12-20T00:55:57;11.20;99.90
39017;DHT22;24784;45.582;5.276;2022-12-20T00:58:24;11.10;99.90
39017;DHT22;24784;45.582;5.276;2022-12-20T01:00:49;10.90;99.90
39017;DHT22;24784;45.582;5.276;2022-12-20T01:03:15;10.90;99.90
39017;DHT22;24784;45.582;5.276;2022-12-20T01:05:56;10.90;99.90
39017;DHT22;24784;45.582;5.276;2022-12-20T01:08:23;11.10;99.90
39017;DHT22;24784;45.582;5.276;2022-12-20T01:11:06;11.00;99.90
39017;DHT22;24784;45.582;5.276;2022-12-20T01:13:33;11.00;99.90
39017;DHT22;24784;45.582;5.276;2022-12-20T01:16:07;11.00;99.90
39017;DHT22;24784;45.582;5.276;2022-12-20T01:18:34;10.90;99.90
39017;DHT22;24784;45.582;5.276;2022-12-20T01:21:05;11.10;99.90
39017;DHT22;24784;45.582;5.276;2022-12-20T01:23:31;11.30;99.90
39017;DHT22;24784;45.582;5.276;2022-12-20T01:25:58;11.10;99.90
39017;DHT22;24784;45.582;5.276;2022-12-20T01:30:50;11.30;99.90
39017;DHT22;24784;45.582;5.276;2022-12-20T01:33:16;11.10;99.90
39017;DHT22;24784;45.582;5.276;2022-12-20T01:35:42;11.30;99.90
39017;DHT22;24784;45.582;5.276;2022-12-20T01:38:08;11.40;99.90
39017;DHT22;24784;45.582;5.276;2022-12-20T01:40:33;11.40;99.90
39017;DHT22;24784;45.582;5.276;2022-12-20T01:42:59;11.30;99.90
39017;DHT22;24784;45.582;5.276;2022-12-20T01:45:28;11.20;99.90
39017;DHT22;24784;45.582;5.276;2022-12-20T01:47:55;11.30;99.90
39017;DHT22;24784;45.582;5.276;2022-12-20T01:50:21;11.10;99.90
39017;DHT22;24784;45.582;5.276;2022-12-20T01:52:48;11.40;99.90
39017;DHT22;24784;45.582;5.276;2022-12-20T01:55:22;11.40;99.90
39017;DHT22;24784;45.582;5.276;2022-12-20T01:57:54;11.40;99.90
39017;DHT22;24784;45.582;5.276;2022-12-20T02:00:21;11.40;99.90
39017;DHT22;24784;45.582;5.276;2022-12-20T02:02:48;11.30;99.90
39017;DHT22;24784;45.582;5.276;2022-12-20T02:05:16;11.20;99.90
39017;DHT22;24784;45.582;5.276;2022-12-20T02:07:43;11.30;99.90
39017;DHT22;24784;45.582;5.276;2022-12-20T02:10:11;11.20;99.90
39017;DHT22;24784;45.582;5.276;2022-12-20T02:12:45;11.20;99.90
39017;DHT22;24784;45.582;5.276;2022-12-20T02:15:31;11.30;99.90
39017;DHT22;24784;45.582;5.276;2022-12-20T02:32:16;11.40;99.90
39017;DHT22;24784;45.582;5.276;2022-12-20T02:34:45;11.30;99.90
39017;DHT22;24784;45.582;5.276;2022-12-20T02:37:11;11.30;99.90
39017;DHT22;24784;45.582;5.276;2022-12-20T02:39:39;11.30;99.90
39017;DHT22;24784;45.582;5.276;2022-12-20T02:42:09;11.30;99.90
39017;DHT22;24784;45.582;5.276;2022-12-20T02:44:39;11.40;99.90
39017;DHT22;24784;45.582;5.276;2022-12-20T02:47:30;11.40;99.90
39017;DHT22;24784;45.582;5.276;2022-12-20T02:49:57;11.40;99.90
39017;DHT22;24784;45.582;5.276;2022-12-20T02:52:26;11.20;99.90
39017;DHT22;24784;45.582;5.276;2022-12-20T02:54:55;11.10;99.90
39017;DHT22;24784;45.582;5.276;2022-12-20T02:57:51;11.00;99.90
39017;DHT22;24784;45.582;5.276;2022-12-20T03:00:21;11.20;99.90
39017;DHT22;24784;45.582;5.276;2022-12-20T03:02:48;11.00;99.90
39017;DHT22;24784;45.582;5.276;2022-12-20T03:05:44;10.70;99.90
39017;DHT22;24784;45.582;5.276;2022-12-20T03:08:10;10.80;99.90
39017;DHT22;24784;45.582;5.276;2022-12-20T03:10:37;10.70;99.90
39017;DHT22;24784;45.582;5.276;2022-12-20T03:13:02;10.70;99.90
39017;DHT22;24784;45.582;5.276;2022-12-20T03:15:28;10.80;99.90
39017;DHT22;24784;45.582;5.276;2022-12-20T03:17:54;10.80;99.90
39017;DHT22;24784;45.582;5.276;2022-12-20T03:20:20;10.70;99.90
39017;DHT22;24784;45.582;5.276;2022-12-20T03:22:45;10.70;99.90
39017;DHT22;24784;45.582;5.276;2022-12-20T03:25:11;10.70;99.90
39017;DHT22;24784;45.582;5.276;2022-12-20T03:27:37;10.90;99.90
39017;DHT22;24784;45.582;5.276;2022-12-20T03:30:04;10.80;99.90
39017;DHT22;24784;45.582;5.276;2022-12-20T03:32:30;10.90;99.90
39017;DHT22;24784;45.582;5.276;2022-12-20T03:34:56;10.90;99.90
39017;DHT22;24784;45.582;5.276;2022-12-20T03:37:22;11.00;99.90
39017;DHT22;24784;45.582;5.276;2022-12-20T03:39:47;11.10;99.90
39017;DHT22;24784;45.582;5.276;2022-12-20T03:42:13;11.20;99.90
39017;DHT22;24784;45.582;5.276;2022-12-20T03:44:39;11.20;99.90
39017;DHT22;24784;45.582;5.276;2022-12-20T03:47:04;11.10;99.90
39017;DHT22;24784;45.582;5.276;2022-12-20T03:49:30;11.30;99.90
39017;DHT22;24784;45.582;5.276;2022-12-20T03:51:56;11.20;99.90
39017;DHT22;24784;45.582;5.276;2022-12-20T03:54:22;11.30;99.90
39017;DHT22;24784;45.582;5.276;2022-12-20T03:56:47;11.40;99.90
39017;DHT22;24784;45.582;5.276;2022-12-20T03:59:13;11.40;99.90
39017;DHT22;24784;45.582;5.276;2022-12-20T04:01:39;11.30;99.90
39017;DHT22;24784;45.582;5.276;2022-12-20T04:04:12;11.30;99.90
39017;DHT22;24784;45.582;5.276;2022-12-20T04:06:38;11.30;99.90
39017;DHT22;24784;45.582;5.276;2022-12-20T04:09:04;11.20;99.90
39017;DHT22;24784;45.582;5.276;2022-12-20T04:11:30;11.40;99.90
39017;DHT22;24784;45.582;5.276;2022-12-20T04:13:56;11.40;99.90
39017;DHT22;24784;45.582;5.276;2022-12-20T04:16:24;11.50;99.90
39017;DHT22;24784;45.582;5.276;2022-12-20T04:18:50;11.40;99.90
39017;DHT22;24784;45.582;5.276;2022-12-20T04:21:24;11.40;99.90
39017;DHT22;24784;45.582;5.276;2022-12-20T04:23:50;11.30;99.90
39017;DHT22;24784;45.582;5.276;2022-12-20T04:26:17;11.10;99.90
39017;DHT22;24784;45.582;5.276;2022-12-20T04:28:43;11.00;99.90
39017;DHT22;24784;45.582;5.276;2022-12-20T04:31:08;10.90;99.90
39017;DHT22;24784;45.582;5.276;2022-12-20T04:33:35;10.90;99.90
39017;DHT22;24784;45.582;5.276;2022-12-20T04:36:01;10.90;99.90
39017;DHT22;24784;45.582;5.276;2022-12-20T04:38:27;10.90;99.90
39017;DHT22;24784;45.582;5.276;2022-12-20T04:40:54;11.00;99.90
39017;DHT22;24784;45.582;5.276;2022-12-20T04:43:20;11.30;99.90
39017;DHT22;24784;45.582;5.276;2022-12-20T04:45:48;11.20;99.90
39017;DHT22;24784;45.582;5.276;2022-12-20T04:48:14;11.00;99.90
39017;DHT22;24784;45.582;5.276;2022-12-20T04:50:41;11.00;99.90
39017;DHT22;24784;45.582;5.276;2022-12-20T04:53:10;11.30;99.90
39017;DHT22;24784;45.582;5.276;2022-12-20T04:55:54;11.30;99.90
39017;DHT22;24784;45.582;5.276;2022-12-20T04:58:20;11.40;99.90
39017;DHT22;24784;45.582;5.276;2022-12-20T05:00:45;11.40;99.90
39017;DHT22;24784;45.582;5.276;2022-12-20T05:03:11;11.20;99.90
39017;DHT22;24784;45.582;5.276;2022-12-20T05:05:37;11.40;99.90
39017;DHT22;24784;45.582;5.276;2022-12-20T05:08:03;11.50;99.90
39017;DHT22;24784;45.582;5.276;2022-12-20T05:10:29;11.70;99.90
39017;DHT22;24784;45.582;5.276;2022-12-20T05:12:54;11.70;99.90
39017;DHT22;24784;45.582;5.276;2022-12-20T05:15:20;11.60;99.90
39017;DHT22;24784;45.582;5.276;2022-12-20T05:17:46;11.60;99.90
39017;DHT22;24784;45.582;5.276;2022-12-20T05:20:12;11.60;99.90
39017;DHT22;24784;45.582;5.276;2022-12-20T05:22:38;11.80;99.90
39017;DHT22;24784;45.582;5.276;2022-12-20T05:25:22;11.80;99.90
39017;DHT22;24784;45.582;5.276;2022-12-20T05:28:06;11.70;99.90
39017;DHT22;24784;45.582;5.276;2022-12-20T05:30:32;11.70;99.90
39017;DHT22;24784;45.582;5.276;2022-12-20T05:32:58;11.50;99.90
39017;DHT22;24784;45.582;5.276;2022-12-20T05:35:23;11.50;99.90
39017;DHT22;24784;45.582;5.276;2022-12-20T05:37:49;11.50;99.90
39017;DHT22;24784;45.582;5.276;2022-12-20T05:40:15;11.50;99.90
39017;DHT22;24784;45.582;5.276;2022-12-20T05:42:42;11.90;99.90
39017;DHT22;24784;45.582;5.276;2022-12-20T05:45:08;12.00;99.90
39017;DHT22;24784;45.582;5.276;2022-12-20T05:47:34;11.80;99.90
39017;DHT22;24784;45.582;5.276;2022-12-20T05:50:00;11.90;99.90
39017;DHT22;24784;45.582;5.276;2022-12-20T05:52:26;11.90;99.90
39017;DHT22;24784;45.582;5.276;2022-12-20T05:54:51;11.70;99.90
39017;DHT22;24784;45.582;5.276;2022-12-20T05:57:17;11.70;99.90
39017;DHT22;24784;45.582;5.276;2022-12-20T05:59:43;11.90;99.90
39017;DHT22;24784;45.582;5.276;2022-12-20T06:02:09;12.00;99.90
39017;DHT22;24784;45.582;5.276;2022-12-20T06:04:37;12.00;99.90
39017;DHT22;24784;45.582;5.276;2022-12-20T06:07:03;11.90;99.90
39017;DHT22;24784;45.582;5.276;2022-12-20T06:09:30;11.90;99.90
39017;DHT22;24784;45.582;5.276;2022-12-20T06:11:56;12.20;99.90
39017;DHT22;24784;45.582;5.276;2022-12-20T06:14:22;12.00;99.90
39017;DHT22;24784;45.582;5.276;2022-12-20T06:16:48;11.90;99.90
39017;DHT22;24784;45.582;5.276;2022-12-20T06:19:13;11.80;99.90
39017;DHT22;24784;45.582;5.276;2022-12-20T06:21:39;12.10;99.90
39017;DHT22;24784;45.582;5.276;2022-12-20T06:24:05;12.40;99.90
39017;DHT22;24784;45.582;5.276;2022-12-20T06:26:31;12.50;99.90
39017;DHT22;24784;45.582;5.276;2022-12-20T06:29:02;12.50;99.90
39017;DHT22;24784;45.582;5.276;2022-12-20T06:31:28;12.60;99.90
39017;DHT22;24784;45.582;5.276;2022-12-20T06:33:54;12.50;99.90
39017;DHT22;24784;45.582;5.276;2022-12-20T06:36:19;12.40;99.90
39017;DHT22;24784;45.582;5.276;2022-12-20T06:38:45;12.50;99.90
39017;DHT22;24784;45.582;5.276;2022-12-20T06:41:11;12.60;99.90
39017;DHT22;24784;45.582;5.276;2022-12-20T06:43:37;12.50;99.90
39017;DHT22;24784;45.582;5.276;2022-12-20T06:46:03;12.50;99.90
39017;DHT22;24784;45.582;5.276;2022-12-20T06:48:28;12.50;99.90
39017;DHT22;24784;45.582;5.276;2022-12-20T06:50:54;12.40;99.90
39017;DHT22;24784;45.582;5.276;2022-12-20T06:53:20;12.30;99.90
39017;DHT22;24784;45.582;5.276;2022-12-20T06:55:49;12.30;99.90
39017;DHT22;24784;45.582;5.276;2022-12-20T06:58:19;12.30;99.90
39017;DHT22;24784;45.582;5.276;2022-12-20T07:00:45;12.30;99.90
39017;DHT22;24784;45.582;5.276;2022-12-20T07:03:10;12.30;99.90
39017;DHT22;24784;45.582;5.276;2022-12-20T07:05:36;12.30;99.90
39017;DHT22;24784;45.582;5.276;2022-12-20T07:08:04;12.40;99.90
39017;DHT22;24784;45.582;5.276;2022-12-20T07:10:30;12.40;99.90
39017;DHT22;24784;45.582;5.276;2022-12-20T07:12:56;12.40;99.90
39017;DHT22;24784;45.582;5.276;2022-12-20T07:15:22;12.40;99.90
39017;DHT22;24784;45.582;5.276;2022-12-20T07:17:47;12.50;99.90
39017;DHT22;24784;45.582;5.276;2022-12-20T07:20:13;12.60;99.90
39017;DHT22;24784;45.582;5.276;2022-12-20T07:22:39;12.50;99.90
39017;DHT22;24784;45.582;5.276;2022-12-20T07:25:05;12.50;99.90
39017;DHT22;24784;45.582;5.276;2022-12-20T07:27:31;12.60;99.90
39017;DHT22;24784;45.582;5.276;2022-12-20T07:29:56;12.80;99.90
39017;DHT22;24784;45.582;5.276;2022-12-20T07:32:22;12.80;99.90
39017;DHT22;24784;45.582;5.276;2022-12-20T07:34:48;12.70;99.90
39017;DHT22;24784;45.582;5.276;2022-12-20T07:37:13;12.80;99.90
39017;DHT22;24784;45.582;5.276;2022-12-20T07:39:39;12.80;99.90
39017;DHT22;24784;45.582;5.276;2022-12-20T07:42:07;12.90;99.90
39017;DHT22;24784;45.582;5.276;2022-12-20T07:44:33;12.90;99.90
39017;DHT22;24784;45.582;5.276;2022-12-20T07:46:59;12.80;99.90
39017;DHT22;24784;45.582;5.276;2022-12-20T07:49:25;12.90;99.90
39017;DHT22;24784;45.582;5.276;2022-12-20T07:51:54;12.90;99.90
39017;DHT22;24784;45.582;5.276;2022-12-20T07:54:25;12.90;99.90
39017;DHT22;24784;45.582;5.276;2022-12-20T07:56:55;12.90;99.90
39017;DHT22;24784;45.582;5.276;2022-12-20T07:59:29;12.90;99.90
39017;DHT22;24784;45.582;5.276;2022-12-20T08:01:56;13.00;99.90
39017;DHT22;24784;45.582;5.276;2022-12-20T08:04:24;12.90;99.90
39017;DHT22;24784;45.582;5.276;2022-12-20T08:06:52;12.90;99.90
39017;DHT22;24784;45.582;5.276;2022-12-20T08:09:20;12.90;99.90
39017;DHT22;24784;45.582;5.276;2022-12-20T08:11:48;12.80;99.90
39017;DHT22;24784;45.582;5.276;2022-12-20T08:14:15;12.80;99.90
39017;DHT22;24784;45.582;5.276;2022-12-20T08:16:43;12.90;99.90
39017;DHT22;24784;45.582;5.276;2022-12-20T08:19:09;12.90;99.90
39017;DHT22;24784;45.582;5.276;2022-12-20T08:21:35;12.80;99.90
39017;DHT22;24784;45.582;5.276;2022-12-20T08:24:00;12.80;99.90
39017;DHT22;24784;45.582;5.276;2022-12-20T08:26:26;12.90;99.90
39017;DHT22;24784;45.582;5.276;2022-12-20T08:28:53;12.90;99.90
39017;DHT22;24784;45.582;5.276;2022-12-20T08:31:19;12.90;99.90
39017;DHT22;24784;45.582;5.276;2022-12-20T08:33:45;12.90;99.90
39017;DHT22;24784;45.582;5.276;2022-12-20T08:36:12;12.90;99.90
39017;DHT22;24784;45.582;5.276;2022-12-20T08:38:38;13.00;99.90
39017;DHT22;24784;45.582;5.276;2022-12-20T08:41:06;13.00;99.90
39017;DHT22;24784;45.582;5.276;2022-12-20T08:43:33;13.10;99.90
39017;DHT22;24784;45.582;5.276;2022-12-20T08:45:59;13.00;99.90
39017;DHT22;24784;45.582;5.276;2022-12-20T08:48:25;13.00;99.90
39017;DHT22;24784;45.582;5.276;2022-12-20T08:50:56;13.10;99.90
39017;DHT22;24784;45.582;5.276;2022-12-20T08:53:22;13.00;99.90
39017;DHT22;24784;45.582;5.276;2022-12-20T08:55:49;12.90;99.90
39017;DHT22;24784;45.582;5.276;2022-12-20T08:58:15;13.00;99.90
39017;DHT22;24784;45.582;5.276;2022-12-20T09:00:40;13.00;99.90
39017;DHT22;24784;45.582;5.276;2022-12-20T09:03:06;13.00;99.90
39017;DHT22;24784;45.582;5.276;2022-12-20T09:05:32;13.00;99.90
39017;DHT22;24784;45.582;5.276;2022-12-20T09:07:58;13.00;99.90
39017;DHT22;24784;45.582;5.276;2022-12-20T09:10:24;13.00;99.90
39017;DHT22;24784;45.582;5.276;2022-12-20T09:12:49;13.10;99.90
39017;DHT22;24784;45.582;5.276;2022-12-20T09:15:15;13.00;99.90
39017;DHT22;24784;45.582;5.276;2022-12-20T09:17:41;12.90;99.90
39017;DHT22;24784;45.582;5.276;2022-12-20T09:20:07;12.90;99.90
39017;DHT22;24784;45.582;5.276;2022-12-20T09:22:33;13.00;99.90
39017;DHT22;24784;45.582;5.276;2022-12-20T09:24:59;13.00;99.90
39017;DHT22;24784;45.582;5.276;2022-12-20T09:27:24;13.00;99.90
39017;DHT22;24784;45.582;5.276;2022-12-20T09:29:50;13.00;99.90
39017;DHT22;24784;45.582;5.276;2022-12-20T09:32:16;13.20;99.90
39017;DHT22;24784;45.582;5.276;2022-12-20T09:34:41;13.10;99.90
39017;DHT22;24784;45.582;5.276;2022-12-20T09:37:07;13.30;99.90
39017;DHT22;24784;45.582;5.276;2022-12-20T09:39:33;13.30;99.90
39017;DHT22;24784;45.582;5.276;2022-12-20T09:41:59;13.30;99.90
39017;DHT22;24784;45.582;5.276;2022-12-20T09:47:21;13.30;99.90
39017;DHT22;24784;45.582;5.276;2022-12-20T09:49:49;13.30;99.90
39017;DHT22;24784;45.582;5.276;2022-12-20T09:52:48;13.30;99.90
39017;DHT22;24784;45.582;5.276;2022-12-20T09:55:37;13.40;99.90
39017;DHT22;24784;45.582;5.276;2022-12-20T10:00:40;13.40;99.90
39017;DHT22;24784;45.582;5.276;2022-12-20T10:03:23;13.40;99.90
39017;DHT22;24784;45.582;5.276;2022-12-20T10:05:52;13.40;99.90
39017;DHT22;24784;45.582;5.276;2022-12-20T10:16:45;13.40;99.90
39017;DHT22;24784;45.582;5.276;2022-12-20T10:22:52;13.40;99.90
39017;DHT22;24784;45.582;5.276;2022-12-20T10:25:19;13.40;99.90
39017;DHT22;24784;45.582;5.276;2022-12-20T10:27:49;13.40;99.90
39017;DHT22;24784;45.582;5.276;2022-12-20T10:30:18;13.40;99.90
39017;DHT22;24784;45.582;5.276;2022-12-20T10:32:47;13.30;99.90
39017;DHT22;24784;45.582;5.276;2022-12-20T10:35:38;13.30;99.90
39017;DHT22;24784;45.582;5.276;2022-12-20T10:38:09;13.40;99.90
39017;DHT22;24784;45.582;5.276;2022-12-20T10:40:39;13.40;99.90
39017;DHT22;24784;45.582;5.276;2022-12-20T10:43:22;13.40;99.90
39017;DHT22;24784;45.582;5.276;2022-12-20T10:45:59;13.50;99.90
39017;DHT22;24784;45.582;5.276;2022-12-20T10:53:23;13.50;99.90
39017;DHT22;24784;45.582;5.276;2022-12-20T10:55:50;13.50;99.90
39017;DHT22;24784;45.582;5.276;2022-12-20T10:58:43;13.50;99.90
39017;DHT22;24784;45.582;5.276;2022-12-20T11:01:18;13.60;99.90
39017;DHT22;24784;45.582;5.276;2022-12-20T11:04:06;13.70;99.90
39017;DHT22;24784;45.582;5.276;2022-12-20T11:06:39;13.70;99.90
39017;DHT22;24784;45.582;5.276;2022-12-20T11:12:12;13.70;99.90
39017;DHT22;24784;45.582;5.276;2022-12-20T11:14:40;13.70;99.90
39017;DHT22;24784;45.582;5.276;2022-12-20T11:17:28;13.60;99.90
39017;DHT22;24784;45.582;5.276;2022-12-20T11:22:57;13.40;99.90
39017;DHT22;24784;45.582;5.276;2022-12-20T11:28:31;13.50;99.90
39017;DHT22;24784;45.582;5.276;2022-12-20T11:37:01;13.60;99.90
39017;DHT22;24784;45.582;5.276;2022-12-20T11:39:55;13.70;99.90
39017;DHT22;24784;45.582;5.276;2022-12-20T11:42:41;13.60;99.90
39017;DHT22;24784;45.582;5.276;2022-12-20T11:45:25;13.70;99.90
39017;DHT22;24784;45.582;5.276;2022-12-20T11:48:14;13.60;99.90
39017;DHT22;24784;45.582;5.276;2022-12-20T11:53:37;13.50;99.90
39017;DHT22;24784;45.582;5.276;2022-12-20T11:56:37;13.50;99.90
39017;DHT22;24784;45.582;5.276;2022-12-20T11:59:44;13.50;99.90
39017;DHT22;24784;45.582;5.276;2022-12-20T12:02:20;13.50;99.90
39017;DHT22;24784;45.582;5.276;2022-12-20T12:04:55;13.50;99.90
39017;DHT22;24784;45.582;5.276;2022-12-20T12:07:27;13.40;99.90
39017;DHT22;24784;45.582;5.276;2022-12-20T12:10:36;13.40;99.90
39017;DHT22;24784;45.582;5.276;2022-12-20T12:18:22;13.30;99.90
39017;DHT22;24784;45.582;5.276;2022-12-20T12:21:07;13.30;99.90
39017;DHT22;24784;45.582;5.276;2022-12-20T12:28:57;13.30;99.90
39017;DHT22;24784;45.582;5.276;2022-12-20T12:34:50;13.40;99.90
39017;DHT22;24784;45.582;5.276;2022-12-20T12:45:45;13.30;99.90
39017;DHT22;24784;45.582;5.276;2022-12-20T12:50:43;13.40;99.90
39017;DHT22;24784;45.582;5.276;2022-12-20T12:53:20;13.50;99.90
39017;DHT22;24784;45.582;5.276;2022-12-20T12:55:48;13.50;99.90
39017;DHT22;24784;45.582;5.276;2022-12-20T13:11:38;13.50;99.90
39017;DHT22;24784;45.582;5.276;2022-12-20T13:16:37;13.50;99.90
39017;DHT22;24784;45.582;5.276;2022-12-20T13:19:15;13.50;99.90
39017;DHT22;24784;45.582;5.276;2022-12-20T13:21:46;13.50;99.90
39017;DHT22;24784;45.582;5.276;2022-12-20T13:43:30;13.70;99.90
39017;DHT22;24784;45.582;5.276;2022-12-20T13:51:18;13.70;99.90
39017;DHT22;24784;45.582;5.276;2022-12-20T13:54:02;13.70;99.90
39017;DHT22;24784;45.582;5.276;2022-12-20T13:56:43;13.70;99.90
39017;DHT22;24784;45.582;5.276;2022-12-20T13:59:29;13.60;99.90
39017;DHT22;24784;45.582;5.276;2022-12-20T14:01:57;13.60;99.90
39017;DHT22;24784;45.582;5.276;2022-12-20T14:04:38;13.60;99.90
39017;DHT22;24784;45.582;5.276;2022-12-20T14:07:07;13.50;99.90
39017;DHT22;24784;45.582;5.276;2022-12-20T14:09:35;13.50;99.90
39017;DHT22;24784;45.582;5.276;2022-12-20T14:12:03;13.50;99.90
39017;DHT22;24784;45.582;5.276;2022-12-20T14:14:30;13.50;99.90
39017;DHT22;24784;45.582;5.276;2022-12-20T14:16:55;13.50;99.90
39017;DHT22;24784;45.582;5.276;2022-12-20T14:19:38;13.70;99.90
39017;DHT22;24784;45.582;5.276;2022-12-20T14:22:04;13.60;99.90
39017;DHT22;24784;45.582;5.276;2022-12-20T14:24:30;13.60;99.90
39017;DHT22;24784;45.582;5.276;2022-12-20T14:26:56;13.60;99.90
39017;DHT22;24784;45.582;5.276;2022-12-20T14:29:28;13.50;99.90
39017;DHT22;24784;45.582;5.276;2022-12-20T14:31:54;13.60;99.90
39017;DHT22;24784;45.582;5.276;2022-12-20T14:34:27;13.70;99.90
39017;DHT22;24784;45.582;5.276;2022-12-20T14:37:32;13.80;99.90
39017;DHT22;24784;45.582;5.276;2022-12-20T14:42:36;13.70;99.90
39017;DHT22;24784;45.582;5.276;2022-12-20T14:47:35;13.80;99.90
39017;DHT22;24784;45.582;5.276;2022-12-20T14:50:16;13.90;99.90
39017;DHT22;24784;45.582;5.276;2022-12-20T14:52:43;13.80;99.90
39017;DHT22;24784;45.582;5.276;2022-12-20T14:57:58;13.50;99.90
39017;DHT22;24784;45.582;5.276;2022-12-20T15:00:30;13.50;99.90
39017;DHT22;24784;45.582;5.276;2022-12-20T15:08:10;13.70;99.90
39017;DHT22;24784;45.582;5.276;2022-12-20T15:10:37;13.50;99.90
39017;DHT22;24784;45.582;5.276;2022-12-20T15:13:03;13.40;99.90
39017;DHT22;24784;45.582;5.276;2022-12-20T15:15:29;13.40;99.90
39017;DHT22;24784;45.582;5.276;2022-12-20T15:17:55;13.20;99.90
39017;DHT22;24784;45.582;5.276;2022-12-20T15:20:21;13.40;99.90
39017;DHT22;24784;45.582;5.276;2022-12-20T15:22:46;13.30;99.90
39017;DHT22;24784;45.582;5.276;2022-12-20T15:25:16;13.40;99.90
39017;DHT22;24784;45.582;5.276;2022-12-20T15:27:42;13.30;99.90
39017;DHT22;24784;45.582;5.276;2022-12-20T15:30:14;13.20;99.90
39017;DHT22;24784;45.582;5.276;2022-12-20T15:32:41;13.10;99.90
39017;DHT22;24784;45.582;5.276;2022-12-20T15:35:14;13.20;99.90
39017;DHT22;24784;45.582;5.276;2022-12-20T15:37:40;13.20;99.90
39017;DHT22;24784;45.582;5.276;2022-12-20T15:40:12;13.10;99.90
39017;DHT22;24784;45.582;5.276;2022-12-20T15:42:42;13.10;99.90
39017;DHT22;24784;45.582;5.276;2022-12-20T15:45:13;13.10;99.90
39017;DHT22;24784;45.582;5.276;2022-12-20T15:47:39;13.10;99.90
39017;DHT22;24784;45.582;5.276;2022-12-20T15:50:05;13.20;99.90
39017;DHT22;24784;45.582;5.276;2022-12-20T15:52:31;13.20;99.90
39017;DHT22;24784;45.582;5.276;2022-12-20T15:54:57;13.00;99.90
39017;DHT22;24784;45.582;5.276;2022-12-20T15:57:23;12.80;99.90
39017;DHT22;24784;45.582;5.276;2022-12-20T15:59:48;12.80;99.90
39017;DHT22;24784;45.582;5.276;2022-12-20T16:02:24;12.70;99.90
39017;DHT22;24784;45.582;5.276;2022-12-20T16:07:53;12.70;99.90
39017;DHT22;24784;45.582;5.276;2022-12-20T16:10:19;12.50;99.90
39017;DHT22;24784;45.582;5.276;2022-12-20T16:12:44;12.50;99.90
39017;DHT22;24784;45.582;5.276;2022-12-20T16:15:20;12.50;99.90
39017;DHT22;24784;45.582;5.276;2022-12-20T16:17:46;12.50;99.90
39017;DHT22;24784;45.582;5.276;2022-12-20T16:20:12;12.50;99.90
39017;DHT22;24784;45.582;5.276;2022-12-20T16:22:37;12.50;99.90
39017;DHT22;24784;45.582;5.276;2022-12-20T16:25:04;12.40;99.90
39017;DHT22;24784;45.582;5.276;2022-12-20T16:27:30;12.60;99.90
39017;DHT22;24784;45.582;5.276;2022-12-20T16:29:56;12.80;99.90
39017;DHT22;24784;45.582;5.276;2022-12-20T16:32:21;12.90;99.90
39017;DHT22;24784;45.582;5.276;2022-12-20T16:34:51;12.90;99.90
39017;DHT22;24784;45.582;5.276;2022-12-20T16:37:17;12.90;99.90
39017;DHT22;24784;45.582;5.276;2022-12-20T16:39:43;13.00;99.90
39017;DHT22;24784;45.582;5.276;2022-12-20T16:42:16;13.10;99.90
39017;DHT22;24784;45.582;5.276;2022-12-20T16:44:43;13.00;99.90
39017;DHT22;24784;45.582;5.276;2022-12-20T16:47:10;13.00;99.90
39017;DHT22;24784;45.582;5.276;2022-12-20T16:49:36;13.00;99.90
39017;DHT22;24784;45.582;5.276;2022-12-20T16:52:03;13.00;99.90
39017;DHT22;24784;45.582;5.276;2022-12-20T16:54:29;13.00;99.90
39017;DHT22;24784;45.582;5.276;2022-12-20T16:56:56;13.00;99.90
39017;DHT22;24784;45.582;5.276;2022-12-20T16:59:23;13.10;99.90
39017;DHT22;24784;45.582;5.276;2022-12-20T17:01:51;13.20;99.90
39017;DHT22;24784;45.582;5.276;2022-12-20T17:04:18;13.20;99.90
39017;DHT22;24784;45.582;5.276;2022-12-20T17:06:45;13.40;99.90
39017;DHT22;24784;45.582;5.276;2022-12-20T17:09:11;13.30;99.90
39017;DHT22;24784;45.582;5.276;2022-12-20T17:11:37;13.30;99.90
39017;DHT22;24784;45.582;5.276;2022-12-20T17:14:05;13.10;99.90
39017;DHT22;24784;45.582;5.276;2022-12-20T17:16:30;13.30;99.90
39017;DHT22;24784;45.582;5.276;2022-12-20T17:18:57;13.40;99.90
39017;DHT22;24784;45.582;5.276;2022-12-20T17:21:33;13.30;99.90
39017;DHT22;24784;45.582;5.276;2022-12-20T17:24:00;13.20;99.90
39017;DHT22;24784;45.582;5.276;2022-12-20T17:26:28;13.10;99.90
39017;DHT22;24784;45.582;5.276;2022-12-20T17:28:55;13.20;99.90
39017;DHT22;24784;45.582;5.276;2022-12-20T17:34:01;13.30;99.90
39017;DHT22;24784;45.582;5.276;2022-12-20T17:36:27;13.30;99.90
39017;DHT22;24784;45.582;5.276;2022-12-20T17:38:53;13.40;99.90
39017;DHT22;24784;45.582;5.276;2022-12-20T17:41:27;13.40;99.90
39017;DHT22;24784;45.582;5.276;2022-12-20T17:43:55;13.50;99.90
39017;DHT22;24784;45.582;5.276;2022-12-20T17:46:21;13.40;99.90
39017;DHT22;24784;45.582;5.276;2022-12-20T17:48:48;13.40;99.90
39017;DHT22;24784;45.582;5.276;2022-12-20T17:51:22;13.40;99.90
39017;DHT22;24784;45.582;5.276;2022-12-20T17:53:51;13.40;99.90
39017;DHT22;24784;45.582;5.276;2022-12-20T17:56:21;13.50;99.90
39017;DHT22;24784;45.582;5.276;2022-12-20T17:58:47;13.50;99.90
39017;DHT22;24784;45.582;5.276;2022-12-20T18:01:28;13.60;99.90
39017;DHT22;24784;45.582;5.276;2022-12-20T18:03:56;13.50;99.90